createdAt,value
2023-01-26T00:02:04.376Z,100560.63
2023-01-26T00:04:32.070Z,100560.13
2023-01-26T00:06:59.696Z,100552.88
2023-01-26T00:09:27.349Z,100559.63
2023-01-26T00:11:54.962Z,100549.69
2023-01-26T00:14:22.600Z,100555.31
2023-01-26T00:16:50.230Z,100550.59
2023-01-26T00:19:19.472Z,100527.91
2023-01-26T00:21:47.122Z,100542.28
2023-01-26T00:24:14.863Z,100535.44
2023-01-26T00:26:42.540Z,100523.69
2023-01-26T00:29:10.225Z,100395.97
2023-01-26T00:31:37.890Z,100512.34
2023-01-26T00:34:05.551Z,100513.53
2023-01-26T00:36:37.579Z,100512.97
2023-01-26T00:39:05.258Z,100513.53
2023-01-26T00:41:50.412Z,100513.97
2023-01-26T00:44:18.095Z,100514.47
2023-01-26T00:46:46.684Z,100502.69
2023-01-26T00:49:14.451Z,100510.91
2023-01-26T00:51:43.406Z,100511.53
2023-01-26T00:54:11.087Z,100512.84
2023-01-26T00:56:40.050Z,100502.78
2023-01-26T00:59:07.735Z,100507.53
2023-01-26T01:01:35.427Z,100509.53
2023-01-26T01:04:03.117Z,100508.44
2023-01-26T01:06:30.801Z,100508.03
2023-01-26T01:08:59.769Z,100511.53
2023-01-26T01:11:28.811Z,100509.75
2023-01-26T01:13:58.001Z,100504.41
2023-01-26T01:16:28.543Z,100501.03
2023-01-26T01:18:56.917Z,100500.03
2023-01-26T01:21:25.633Z,100501.31
2023-01-26T01:23:54.237Z,100499.22
2023-01-26T01:26:23.256Z,100498.59
2023-01-26T01:28:55.646Z,100497.91
2023-01-26T01:31:23.946Z,100489.06
2023-01-26T01:33:52.860Z,100492.16
2023-01-26T01:36:20.785Z,100505.03
2023-01-26T01:38:48.822Z,100503.44
2023-01-26T01:41:18.553Z,100495.59
2023-01-26T01:43:47.870Z,100489.56
2023-01-26T01:46:22.286Z,100489.47
2023-01-26T01:48:54.989Z,100483.38
2023-01-26T01:51:31.951Z,100436.59
2023-01-26T01:54:05.507Z,100491.06
2023-01-26T01:56:35.262Z,100489.47
2023-01-26T01:59:06.947Z,100493.09
2023-01-26T02:01:34.676Z,100498.00
2023-01-26T02:04:06.060Z,100493.19
2023-01-26T02:06:40.497Z,100490.78
2023-01-26T02:09:29.959Z,100486.25
2023-01-26T02:11:59.549Z,100485.66
2023-01-26T02:14:29.739Z,100480.75
2023-01-26T02:16:57.383Z,100492.09
2023-01-26T02:19:33.971Z,100481.03
2023-01-26T02:22:11.488Z,100473.19
2023-01-26T02:24:41.082Z,100476.81
2023-01-26T02:27:10.175Z,100477.81
2023-01-26T02:29:38.271Z,100478.84
2023-01-26T02:32:06.533Z,100471.91
2023-01-26T02:34:34.305Z,100461.38
2023-01-26T02:37:02.290Z,100466.78
2023-01-26T02:39:45.001Z,100470.69
2023-01-26T02:42:32.078Z,100468.91
2023-01-26T02:45:00.907Z,100458.25
2023-01-26T02:47:29.276Z,100460.78
2023-01-26T02:49:58.171Z,100468.50
2023-01-26T02:52:29.020Z,100462.06
2023-01-26T02:55:22.350Z,100459.66
2023-01-26T02:57:52.839Z,100460.28
2023-01-26T03:00:22.327Z,100455.34
2023-01-26T03:02:52.855Z,100454.75
2023-01-26T03:05:20.727Z,100448.63
2023-01-26T03:07:48.521Z,100449.13
2023-01-26T03:10:18.129Z,100396.78
2023-01-26T03:12:45.947Z,100444.44
2023-01-26T03:15:32.696Z,100440.72
2023-01-26T03:18:30.933Z,100434.09
2023-01-26T03:21:18.250Z,100441.72
2023-01-26T03:24:04.589Z,100431.06
2023-01-26T03:26:51.373Z,100428.97
2023-01-26T03:29:19.934Z,100429.47
2023-01-26T03:31:49.712Z,100321.53
2023-01-26T03:34:18.303Z,100423.66
2023-01-26T03:36:47.415Z,100419.94
2023-01-26T03:39:30.283Z,100423.22
2023-01-26T03:42:15.593Z,100427.06
2023-01-26T03:45:00.882Z,100412.81
2023-01-26T03:47:47.996Z,100409.09
2023-01-26T03:50:34.063Z,100411.81
2023-01-26T03:53:19.309Z,100416.41
2023-01-26T03:56:04.482Z,100411.00
2023-01-26T03:58:32.208Z,100406.88
2023-01-26T04:01:00.295Z,100407.59
2023-01-26T04:03:47.282Z,100407.31
2023-01-26T04:06:32.960Z,100412.19
2023-01-26T04:09:00.675Z,100401.09
2023-01-26T04:11:28.453Z,100408.31
2023-01-26T04:14:13.792Z,100412.13
2023-01-26T04:17:00.674Z,100405.41
2023-01-26T04:19:47.312Z,100404.09
2023-01-26T04:22:15.100Z,100401.38
2023-01-26T04:24:44.822Z,100401.38
2023-01-26T04:27:12.762Z,100401.78
2023-01-26T04:29:42.094Z,100394.19
2023-01-26T04:32:09.817Z,100380.63
2023-01-26T04:34:38.936Z,100389.53
2023-01-26T04:37:13.770Z,100385.94
2023-01-26T04:39:46.427Z,100380.91
2023-01-26T04:42:14.487Z,100379.31
2023-01-26T04:44:42.783Z,100372.91
2023-01-26T04:47:10.541Z,100369.19
2023-01-26T04:49:40.536Z,100373.31
2023-01-26T04:52:08.550Z,100375.00
2023-01-26T04:54:36.644Z,100369.47
2023-01-26T04:57:04.487Z,100363.47
2023-01-26T04:59:32.357Z,100368.97
2023-01-26T05:02:02.050Z,100362.06
2023-01-26T05:04:29.929Z,100361.97
2023-01-26T05:06:58.997Z,100370.81
2023-01-26T05:09:27.730Z,100362.78
2023-01-26T05:12:30.362Z,100364.56
2023-01-26T05:15:27.314Z,100363.56
2023-01-26T05:18:15.915Z,100355.44
2023-01-26T05:21:10.059Z,100361.19
2023-01-26T05:23:43.641Z,100351.84
2023-01-26T05:26:28.044Z,100353.34
2023-01-26T05:28:58.407Z,100345.94
2023-01-26T05:31:27.136Z,100350.44
2023-01-26T05:33:55.641Z,100359.25
2023-01-26T05:36:24.938Z,100358.06
2023-01-26T05:38:53.919Z,100359.97
2023-01-26T05:41:25.248Z,100363.66
2023-01-26T05:44:15.874Z,100371.19
2023-01-26T05:46:47.984Z,100375.22
2023-01-26T05:49:16.118Z,100372.91
2023-01-26T05:51:43.869Z,100374.50
2023-01-26T05:54:12.997Z,100376.91
2023-01-26T05:56:40.993Z,100377.59
2023-01-26T05:59:09.171Z,100377.53
2023-01-26T06:01:36.953Z,100369.88
2023-01-26T06:04:08.317Z,100371.59
2023-01-26T06:06:42.790Z,100374.72
2023-01-26T06:09:41.188Z,100380.63
2023-01-26T06:12:31.380Z,100382.44
2023-01-26T06:15:03.845Z,100389.16
2023-01-26T06:17:40.990Z,100381.72
2023-01-26T06:20:14.675Z,100393.16
2023-01-26T06:22:45.598Z,100401.28
2023-01-26T06:25:14.879Z,100398.16
2023-01-26T06:27:42.897Z,100399.88
2023-01-26T06:30:20.346Z,100403.31
2023-01-26T06:32:49.232Z,100402.31
2023-01-26T06:35:18.571Z,100401.88
2023-01-26T06:37:49.198Z,100408.22
2023-01-26T06:40:19.222Z,100408.09
2023-01-26T06:42:48.485Z,100399.97
2023-01-26T06:45:17.345Z,100399.97
2023-01-26T06:47:48.724Z,100405.41
2023-01-26T06:50:17.909Z,100400.38
2023-01-26T06:52:48.649Z,100403.31
2023-01-26T06:55:41.669Z,100402.19
2023-01-26T06:58:35.521Z,100401.56
2023-01-26T07:01:11.718Z,100401.19
2023-01-26T07:03:39.486Z,100401.78
2023-01-26T07:06:07.915Z,100405.19
2023-01-26T07:08:35.564Z,100409.41
2023-01-26T07:11:05.134Z,100404.00
2023-01-26T07:13:33.853Z,100395.84
2023-01-26T07:16:02.450Z,100390.47
2023-01-26T07:18:30.243Z,100401.38
2023-01-26T07:21:01.477Z,100404.88
2023-01-26T07:23:29.143Z,100406.78
2023-01-26T07:25:57.195Z,100389.16
2023-01-26T07:28:26.404Z,100412.69
2023-01-26T07:30:58.046Z,100400.09
2023-01-26T07:33:25.697Z,100407.38
2023-01-26T07:35:54.037Z,100407.38
2023-01-26T07:38:22.110Z,100412.81
2023-01-26T07:40:49.837Z,100419.03
2023-01-26T07:43:17.441Z,100412.19
2023-01-26T07:45:51.282Z,100413.91
2023-01-26T07:48:19.574Z,100417.44
2023-01-26T07:50:48.501Z,100413.63
2023-01-26T07:53:19.172Z,100425.16
2023-01-26T07:55:47.033Z,100429.56
2023-01-26T07:58:14.913Z,100423.44
2023-01-26T08:00:42.598Z,100428.56
2023-01-26T08:03:11.672Z,100422.22
2023-01-26T08:05:39.378Z,100423.81
2023-01-26T08:08:09.591Z,100412.91
2023-01-26T08:10:37.350Z,100418.81
2023-01-26T08:13:05.024Z,100417.13
2023-01-26T08:15:32.740Z,100415.91
2023-01-26T08:18:03.545Z,100416.63
2023-01-26T08:20:32.716Z,100413.22
2023-01-26T08:23:00.584Z,100408.00
2023-01-26T08:25:28.272Z,100421.44
2023-01-26T08:27:56.268Z,100422.94
2023-01-26T08:30:23.898Z,100424.72
2023-01-26T08:32:51.627Z,100431.25
2023-01-26T08:35:19.249Z,100434.88
2023-01-26T08:37:48.248Z,100443.09
2023-01-26T08:40:16.411Z,100448.41
2023-01-26T08:42:44.061Z,100443.69
2023-01-26T08:45:12.358Z,100435.38
2023-01-26T08:47:40.032Z,100446.19
2023-01-26T08:50:08.444Z,100441.66
2023-01-26T08:52:36.237Z,100440.19
2023-01-26T08:55:05.827Z,100448.13
2023-01-26T08:57:33.494Z,100441.19
2023-01-26T09:00:01.225Z,100444.78
2023-01-26T09:02:29.363Z,100448.00
2023-01-26T09:04:57.109Z,100442.38
2023-01-26T09:07:24.885Z,100450.91
2023-01-26T09:09:52.506Z,100445.31
2023-01-26T09:12:21.521Z,100449.53
2023-01-26T09:14:49.119Z,100441.69
2023-01-26T09:17:16.744Z,100442.88
2023-01-26T09:19:45.051Z,100438.59
2023-01-26T09:22:12.865Z,100444.41
2023-01-26T09:24:40.525Z,100444.19
2023-01-26T09:27:09.075Z,100446.50
2023-01-26T09:29:38.047Z,100446.13
2023-01-26T09:32:06.700Z,100455.13
2023-01-26T09:34:34.491Z,100442.59
2023-01-26T09:37:02.243Z,100442.41
2023-01-26T09:39:29.964Z,100448.00
2023-01-26T09:42:10.882Z,100449.53
2023-01-26T09:44:46.924Z,100399.16
2023-01-26T09:47:22.692Z,100444.34
2023-01-26T09:50:08.657Z,100438.50
2023-01-26T09:52:41.880Z,100441.22
2023-01-26T09:55:16.708Z,100448.44
2023-01-26T09:57:49.921Z,100435.28
2023-01-26T10:00:23.621Z,100441.59
2023-01-26T10:03:04.525Z,100436.50
2023-01-26T10:05:42.409Z,100427.97
2023-01-26T10:08:13.955Z,100432.75
2023-01-26T10:10:47.932Z,100427.16
2023-01-26T10:13:18.203Z,100421.44
2023-01-26T10:15:50.434Z,100433.38
2023-01-26T10:18:22.923Z,100429.97
2023-01-26T10:20:54.923Z,100430.75
2023-01-26T10:23:25.835Z,100423.75
2023-01-26T10:25:55.014Z,100425.13
2023-01-26T10:28:28.358Z,100416.50
2023-01-26T10:30:58.190Z,100429.44
2023-01-26T10:33:29.039Z,100416.41
2023-01-26T10:35:56.938Z,100422.03
2023-01-26T10:38:29.468Z,100410.72
2023-01-26T10:40:58.415Z,100415.81
2023-01-26T10:43:26.635Z,100419.03
2023-01-26T10:45:54.263Z,100414.22
2023-01-26T10:48:26.599Z,100404.59
2023-01-26T10:50:55.635Z,100406.88
2023-01-26T10:53:25.341Z,100413.13
2023-01-26T10:56:02.634Z,100409.00
2023-01-26T10:58:47.526Z,100408.13
2023-01-26T11:01:18.580Z,100414.91
2023-01-26T11:04:03.318Z,100408.09
2023-01-26T11:06:31.593Z,100402.66
2023-01-26T11:09:10.414Z,100396.75
2023-01-26T11:11:38.630Z,100387.31
2023-01-26T11:14:14.764Z,100376.91
2023-01-26T11:16:47.668Z,100395.94
2023-01-26T11:19:26.211Z,100411.50
2023-01-26T11:21:59.499Z,100391.88
2023-01-26T11:24:34.595Z,100380.19
2023-01-26T11:27:22.769Z,100393.44
2023-01-26T11:30:19.969Z,100392.84
2023-01-26T11:32:55.828Z,100380.63
2023-01-26T11:35:33.041Z,100376.09
2023-01-26T11:38:14.176Z,100359.84
2023-01-26T11:40:49.004Z,100375.50
2023-01-26T11:43:46.529Z,100374.28
2023-01-26T11:46:29.957Z,100370.94
2023-01-26T11:49:08.634Z,100366.44
2023-01-26T11:51:52.590Z,100368.69
2023-01-26T11:54:34.372Z,100364.56
2023-01-26T11:57:12.203Z,100358.03
2023-01-26T11:59:43.479Z,100354.03
2023-01-26T12:02:28.287Z,100349.63
2023-01-26T12:04:58.734Z,100351.72
2023-01-26T12:07:31.195Z,100350.94
2023-01-26T12:10:03.153Z,100351.41
2023-01-26T12:12:38.605Z,100343.09
2023-01-26T12:15:14.344Z,100343.91
2023-01-26T12:17:49.742Z,100340.47
2023-01-26T12:20:27.160Z,100329.94
2023-01-26T12:23:04.554Z,100297.78
2023-01-26T12:25:36.532Z,100330.38
2023-01-26T12:28:17.784Z,100333.97
2023-01-26T12:30:52.633Z,100325.25
2023-01-26T12:33:20.581Z,100315.91
2023-01-26T12:35:59.256Z,100323.56
2023-01-26T12:38:39.094Z,100325.19
2023-01-26T12:41:14.418Z,100312.94
2023-01-26T12:43:58.756Z,100310.72
2023-01-26T12:46:33.279Z,100313.53
2023-01-26T12:49:06.248Z,100309.69
2023-01-26T12:51:40.921Z,100307.91
2023-01-26T12:54:17.536Z,100303.88
2023-01-26T12:56:51.350Z,100304.69
2023-01-26T12:59:46.641Z,100302.88
2023-01-26T13:02:21.629Z,100304.13
2023-01-26T13:04:51.094Z,100305.50
2023-01-26T13:07:35.450Z,100306.69
2023-01-26T13:10:44.813Z,100299.19
2023-01-26T13:13:31.149Z,100300.50
2023-01-26T13:16:32.632Z,100286.28
2023-01-26T13:19:01.758Z,100296.28
2023-01-26T13:21:42.060Z,100294.34
2023-01-26T13:24:43.319Z,100289.38
2023-01-26T13:27:31.892Z,100304.91
2023-01-26T13:30:00.172Z,100297.94
2023-01-26T13:33:10.004Z,100306.28
2023-01-26T13:35:38.855Z,100300.84
2023-01-26T13:38:15.668Z,100291.03
2023-01-26T13:40:46.232Z,100303.16
2023-01-26T13:43:27.126Z,100305.03
2023-01-26T13:46:05.823Z,100311.44
2023-01-26T13:48:41.116Z,100309.34
2023-01-26T13:51:10.441Z,100311.06
2023-01-26T13:53:41.316Z,100312.56
2023-01-26T13:56:23.480Z,100285.78
2023-01-26T13:58:53.251Z,100305.31
2023-01-26T14:01:22.060Z,100309.94
2023-01-26T14:03:49.808Z,100317.03
2023-01-26T14:06:20.708Z,100319.47
2023-01-26T14:08:54.044Z,100325.19
2023-01-26T14:11:24.321Z,100319.56
2023-01-26T14:13:56.036Z,100287.50
2023-01-26T14:16:26.655Z,100324.16
2023-01-26T14:19:06.235Z,100328.06
2023-01-26T14:21:34.091Z,100324.66
2023-01-26T14:24:01.821Z,100327.25
2023-01-26T14:26:32.400Z,100326.53
2023-01-26T14:29:03.295Z,100317.31
2023-01-26T14:31:32.178Z,100321.59
2023-01-26T14:34:00.757Z,100318.91
2023-01-26T14:36:32.168Z,100319.31
2023-01-26T14:39:01.033Z,100328.81
2023-01-26T14:41:31.864Z,100329.94
2023-01-26T14:44:01.823Z,100333.75
2023-01-26T14:46:37.377Z,100333.84
2023-01-26T14:49:10.718Z,100333.88
2023-01-26T14:51:38.820Z,100346.00
2023-01-26T14:54:15.674Z,100344.53
2023-01-26T14:56:48.661Z,100343.72
2023-01-26T14:59:23.323Z,100342.72
2023-01-26T15:01:51.265Z,100345.81
2023-01-26T15:04:25.918Z,100344.69
2023-01-26T15:06:53.623Z,100359.06
2023-01-26T15:09:24.124Z,100331.59
2023-01-26T15:12:15.241Z,100367.28
2023-01-26T15:14:52.229Z,100362.66
2023-01-26T15:17:39.421Z,100362.28
2023-01-26T15:20:27.383Z,100368.19
2023-01-26T15:22:55.508Z,100362.28
2023-01-26T15:25:26.285Z,100366.19
2023-01-26T15:27:58.512Z,100366.19
2023-01-26T15:30:31.430Z,100369.00
2023-01-26T15:32:59.938Z,100367.47
2023-01-26T15:35:29.396Z,100357.66
2023-01-26T15:38:02.575Z,100355.34
2023-01-26T15:40:31.325Z,100365.09
2023-01-26T15:43:13.224Z,100350.03
2023-01-26T15:45:48.009Z,100349.03
2023-01-26T15:48:15.624Z,100333.50
2023-01-26T15:50:43.310Z,100340.09
2023-01-26T15:53:14.408Z,100333.38
2023-01-26T15:55:43.760Z,100235.06
2023-01-26T15:58:11.354Z,100320.75
2023-01-26T16:00:40.030Z,100331.28
2023-01-26T16:03:15.666Z,100327.28
2023-01-26T16:05:44.029Z,100238.19
2023-01-26T16:08:11.735Z,100330.19
2023-01-26T16:10:39.523Z,100343.31
2023-01-26T16:13:10.699Z,100338.91
2023-01-26T16:15:40.981Z,100342.13
2023-01-26T16:18:10.194Z,100340.00
2023-01-26T16:20:40.787Z,100344.81
2023-01-26T16:23:17.942Z,100289.59
2023-01-26T16:25:46.407Z,100341.63
2023-01-26T16:28:14.768Z,100339.00
2023-01-26T16:30:43.782Z,100351.13
2023-01-26T16:33:15.400Z,100348.25
2023-01-26T16:35:43.465Z,100345.53
2023-01-26T16:38:12.960Z,100346.31
2023-01-26T16:40:41.709Z,100336.91
2023-01-26T16:43:17.414Z,100332.88
2023-01-26T16:45:45.187Z,100332.78
2023-01-26T16:48:16.604Z,100339.72
2023-01-26T16:50:45.598Z,100331.88
2023-01-26T16:53:19.189Z,100332.59
2023-01-26T16:55:46.938Z,100341.63
2023-01-26T16:58:14.582Z,100340.00
2023-01-26T17:00:42.366Z,100343.13
2023-01-26T17:03:12.905Z,100349.63
2023-01-26T17:05:42.288Z,100339.03
2023-01-26T17:08:10.042Z,100342.31
2023-01-26T17:10:40.113Z,100343.72
2023-01-26T17:13:14.997Z,100344.72
2023-01-26T17:15:42.725Z,100343.63
2023-01-26T17:18:11.911Z,100345.91
2023-01-26T17:20:41.259Z,100347.13
2023-01-26T17:23:10.315Z,100352.66
2023-01-26T17:25:37.897Z,100351.53
2023-01-26T17:28:05.657Z,100348.72
2023-01-26T17:30:33.526Z,100357.13
2023-01-26T17:33:01.927Z,100353.94
2023-01-26T17:35:29.601Z,100363.16
2023-01-26T17:37:57.237Z,100362.25
2023-01-26T17:40:26.237Z,100368.69
2023-01-26T17:42:54.391Z,100363.66
2023-01-26T17:45:23.166Z,100367.78
2023-01-26T17:47:50.849Z,100364.88
2023-01-26T17:50:18.526Z,100363.28
2023-01-26T17:52:46.188Z,100371.88
2023-01-26T17:55:14.047Z,100362.97
2023-01-26T17:57:43.202Z,100370.00
2023-01-26T18:00:12.911Z,100364.88
2023-01-26T18:02:40.691Z,100368.88
2023-01-26T18:05:10.542Z,100369.09
2023-01-26T18:07:38.373Z,100368.09
2023-01-26T18:10:07.113Z,100361.97
2023-01-26T18:12:36.596Z,100362.88
2023-01-26T18:15:06.692Z,100373.47
2023-01-26T18:17:34.509Z,100370.19
2023-01-26T18:20:02.132Z,100374.59
2023-01-26T18:22:30.042Z,100372.69
2023-01-26T18:24:57.893Z,100371.28
2023-01-26T18:27:25.729Z,100337.41
2023-01-26T18:29:53.941Z,100358.34
2023-01-26T18:32:22.952Z,100367.56
2023-01-26T18:34:50.666Z,100361.16
2023-01-26T18:37:18.341Z,100364.56
2023-01-26T18:39:45.991Z,100360.47
2023-01-26T18:42:13.635Z,100356.75
2023-01-26T18:44:41.523Z,100358.88
2023-01-26T18:47:10.268Z,100275.31
2023-01-26T18:49:39.389Z,100342.59
2023-01-26T18:52:07.021Z,100348.53
2023-01-26T18:54:34.905Z,100356.06
2023-01-26T18:57:02.561Z,100355.44
2023-01-26T18:59:30.435Z,100360.84
2023-01-26T19:01:58.129Z,100372.81
2023-01-26T19:04:25.980Z,100361.47
2023-01-26T19:06:54.990Z,100368.28
2023-01-26T19:09:22.641Z,100360.69
2023-01-26T19:11:51.225Z,100365.38
2023-01-26T19:14:18.830Z,100363.06
2023-01-26T19:16:48.988Z,100375.47
2023-01-26T19:19:16.741Z,100373.38
2023-01-26T19:21:44.374Z,100370.09
2023-01-26T19:24:13.434Z,100361.06
2023-01-26T19:26:41.112Z,100358.75
2023-01-26T19:29:10.657Z,100364.69
2023-01-26T19:31:38.410Z,100366.16
2023-01-26T19:34:08.661Z,100368.06
2023-01-26T19:36:37.577Z,100373.59
2023-01-26T19:39:06.184Z,100347.84
2023-01-26T19:41:35.717Z,100369.47
2023-01-26T19:44:03.468Z,100360.53
2023-01-26T19:46:31.328Z,100368.47
2023-01-26T19:48:59.019Z,100367.88
2023-01-26T19:51:27.693Z,100372.59
2023-01-26T19:53:57.310Z,100356.34
2023-01-26T19:56:26.685Z,100378.59
2023-01-26T19:58:57.379Z,100367.56
2023-01-26T20:01:25.696Z,100371.69
2023-01-26T20:03:54.772Z,100359.25
2023-01-26T20:06:24.649Z,100361.53
2023-01-26T20:08:54.114Z,100360.25
2023-01-26T20:11:25.020Z,100359.03
2023-01-26T20:13:56.996Z,100353.03
2023-01-26T20:16:24.879Z,100358.03
2023-01-26T20:18:52.620Z,100360.53
2023-01-26T20:21:20.267Z,100359.41
2023-01-26T20:23:54.350Z,100364.06
2023-01-26T20:26:23.912Z,100365.38
2023-01-26T20:28:51.766Z,100331.34
2023-01-26T20:31:22.855Z,100361.84
2023-01-26T20:33:52.845Z,100365.78
2023-01-26T20:36:23.534Z,100355.53
2023-01-26T20:38:51.324Z,100358.16
2023-01-26T20:41:22.309Z,100356.31
2023-01-26T20:43:59.707Z,100355.75
2023-01-26T20:46:31.979Z,100356.94
2023-01-26T20:49:00.110Z,100359.41
2023-01-26T20:51:30.351Z,100356.31
2023-01-26T20:53:59.111Z,100353.81
2023-01-26T20:56:27.514Z,100348.03
2023-01-26T20:58:56.747Z,100353.50
2023-01-26T21:01:25.062Z,100350.00
2023-01-26T21:03:54.288Z,100346.84
2023-01-26T21:06:24.067Z,100343.97
2023-01-26T21:08:55.008Z,100339.59
2023-01-26T21:11:24.924Z,100344.38
2023-01-26T21:13:52.809Z,100339.09
2023-01-26T21:16:20.700Z,100283.84
2023-01-26T21:18:49.311Z,100339.81
2023-01-26T21:21:18.939Z,100332.91
2023-01-26T21:23:46.892Z,100337.56
2023-01-26T21:26:16.805Z,100320.66
2023-01-26T21:28:44.981Z,100224.38
2023-01-26T21:31:14.691Z,100321.38
2023-01-26T21:33:44.609Z,100303.13
2023-01-26T21:36:13.993Z,100319.56
2023-01-26T21:38:44.729Z,100306.75
2023-01-26T21:41:32.287Z,100313.94
2023-01-26T21:44:01.242Z,100309.53
2023-01-26T21:46:30.426Z,100324.06
2023-01-26T21:48:58.201Z,100318.44
2023-01-26T21:51:44.296Z,100321.88
2023-01-26T21:54:13.828Z,100311.63
2023-01-26T21:56:41.605Z,100309.53
2023-01-26T21:59:14.541Z,100301.81
2023-01-26T22:01:44.597Z,100299.31
2023-01-26T22:04:15.411Z,100308.34
2023-01-26T22:06:43.489Z,100299.63
2023-01-26T22:09:14.818Z,100296.41
2023-01-26T22:11:42.714Z,100303.53
2023-01-26T22:14:14.831Z,100292.41
2023-01-26T22:16:42.611Z,100296.50
2023-01-26T22:19:11.141Z,100259.22
2023-01-26T22:21:39.213Z,100296.63
2023-01-26T22:24:09.378Z,100262.44
2023-01-26T22:26:40.848Z,100294.69
2023-01-26T22:29:08.798Z,100288.59
2023-01-26T22:31:36.452Z,100291.50
2023-01-26T22:34:04.237Z,100289.78
2023-01-26T22:36:32.081Z,100286.19
2023-01-26T22:39:00.754Z,100278.25
2023-01-26T22:41:30.118Z,100283.06
2023-01-26T22:44:00.446Z,100276.03
2023-01-26T22:46:30.355Z,100287.88
2023-01-26T22:48:59.489Z,100285.88
2023-01-26T22:51:29.082Z,100272.25
2023-01-26T22:53:58.563Z,100277.16
2023-01-26T22:56:26.898Z,100281.78
2023-01-26T22:58:58.460Z,100272.84
2023-01-26T23:01:30.606Z,100280.06
2023-01-26T23:04:00.306Z,100271.97
2023-01-26T23:06:28.304Z,100273.66
2023-01-26T23:08:58.066Z,100274.25
2023-01-26T23:11:27.733Z,100274.66
2023-01-26T23:13:57.101Z,100268.94
2023-01-26T23:16:25.908Z,100276.28
2023-01-26T23:18:57.473Z,100268.56
2023-01-26T23:21:26.599Z,100276.47
2023-01-26T23:23:54.361Z,100284.06
2023-01-26T23:26:22.602Z,100275.56
2023-01-26T23:28:50.458Z,100267.84
2023-01-26T23:31:19.368Z,100281.88
2023-01-26T23:33:47.354Z,100262.94
2023-01-26T23:36:16.494Z,100269.25
2023-01-26T23:38:45.643Z,100270.25
2023-01-26T23:41:13.869Z,100273.66
2023-01-26T23:43:41.611Z,100272.16
2023-01-26T23:46:11.143Z,100271.16
2023-01-26T23:48:38.817Z,100266.66
2023-01-26T23:51:09.326Z,100272.25
2023-01-26T23:53:38.889Z,100271.06
2023-01-26T23:56:08.615Z,100269.53
2023-01-26T23:58:37.327Z,100271.94
